Time;durP1;ratioP1;P1;durP2;ratioP2;P2;SDS_P1;SDS_P2;PMS_P1;PMS_P2;Temp;Humidity;BMP_temperature;BMP_pressure;BME280_temperature;BME280_humidity;BME280_pressure;Samples;Min_cycle;Max_cycle;Signal;HPM_P1;HPM_P2
2021/12/19 00:02:19;;;;;;;9.87;6.10;;;;;;;2.00;75.24;95464.66;4992632;28;20209;-77
2021/12/19 00:10:13;;;;;;;10.97;6.00;;;;;;;1.93;75.33;95465.38;4987091;28;20632;-77
2021/12/19 00:12:38;;;;;;;13.57;6.20;;;;;;;1.87;75.60;95461.59;4993153;28;20173;-78
2021/12/19 00:15:04;;;;;;;11.03;6.10;;;;;;;1.82;76.12;95464.59;4983763;28;20263;-78
2021/12/19 00:17:30;;;;;;;20.27;9.40;;;;;;;1.85;76.38;95459.13;4992251;28;20184;-77
2021/12/19 00:19:56;;;;;;;12.73;6.10;;;;;;;1.73;76.11;95449.88;4992573;28;20188;-77
2021/12/19 00:22:21;;;;;;;11.57;6.47;;;;;;;1.87;76.12;95464.19;4992070;28;20205;-76
2021/12/19 00:24:47;;;;;;;14.73;6.73;;;;;;;1.83;76.32;95452.44;4989516;28;20272;-77
2021/12/19 00:27:13;;;;;;;13.73;6.63;;;;;;;1.79;76.52;95457.13;4992541;28;20268;-77
2021/12/19 00:29:38;;;;;;;11.37;6.63;;;;;;;1.75;76.44;95452.34;4992299;28;20525;-77
2021/12/19 00:32:07;;;;;;;18.50;6.87;;;;;;;1.67;76.48;95442.66;4991903;28;20227;-77
2021/12/19 00:34:32;;;;;;;13.27;6.87;;;;;;;1.55;76.80;95443.00;4992044;28;20227;-77
2021/12/19 00:36:58;;;;;;;10.83;6.03;;;;;;;1.48;77.59;95437.53;4992498;28;20169;-77
2021/12/19 00:39:23;;;;;;;12.20;6.53;;;;;;;1.45;78.15;95437.84;4992480;28;20767;-77
2021/12/19 00:41:52;;;;;;;13.77;6.60;;;;;;;1.46;78.28;95450.66;4992612;28;20658;-77
2021/12/19 00:44:25;;;;;;;11.20;6.20;;;;;;;1.35;78.04;95429.25;4992556;28;20172;-77
2021/12/19 00:47:03;;;;;;;15.93;6.60;;;;;;;1.36;77.71;95441.28;4992567;28;20975;-78
2021/12/19 00:49:29;;;;;;;14.30;6.27;;;;;;;1.06;78.08;95393.81;4992701;28;20187;-77
2021/12/19 00:51:55;;;;;;;11.50;6.67;;;;;;;1.33;77.76;95457.09;4992687;28;20181;-77
2021/12/19 00:54:21;;;;;;;17.33;7.53;;;;;;;1.29;78.14;95448.78;4992247;28;20208;-77
2021/12/19 00:56:48;;;;;;;13.50;6.73;;;;;;;1.19;78.80;95434.22;4992624;28;20208;-78
2021/12/19 00:59:15;;;;;;;10.57;6.13;;;;;;;1.24;78.86;95437.19;4992494;28;20173;-77
2021/12/19 01:01:40;;;;;;;14.10;7.10;;;;;;;1.25;79.02;95436.22;4992304;28;20205;-76
2021/12/19 01:04:10;;;;;;;11.70;6.37;;;;;;;1.21;79.51;95427.13;4992122;28;20181;-77
2021/12/19 01:06:37;;;;;;;13.17;7.23;;;;;;;1.19;78.77;95413.47;4992738;28;20566;-78
2021/12/19 01:09:04;;;;;;;14.00;7.47;;;;;;;1.28;78.90;95420.41;4992233;28;20183;-77
2021/12/19 01:11:30;;;;;;;18.40;8.67;;;;;;;1.29;79.28;95419.44;4991882;28;20180;-77
2021/12/19 01:13:56;;;;;;;16.63;8.33;;;;;;;1.22;78.80;95423.53;4991137;28;20784;-77
2021/12/19 01:16:22;;;;;;;23.40;10.80;;;;;;;1.23;79.25;95422.59;4991344;28;20200;-77
2021/12/19 01:18:51;;;;;;;13.33;7.83;;;;;;;1.25;79.48;95415.50;4991940;28;20181;-77
2021/12/19 01:21:17;;;;;;;10.53;6.97;;;;;;;1.26;79.73;95423.13;4991868;28;20197;-77
2021/12/19 01:23:43;;;;;;;13.27;7.50;;;;;;;1.20;79.65;95402.13;4992016;28;20725;-77
2021/12/19 01:26:09;;;;;;;8.80;6.13;;;;;;;1.26;79.23;95411.94;4992035;28;20204;-78
2021/12/19 01:28:35;;;;;;;11.43;6.07;;;;;;;1.17;79.36;95377.31;4992434;28;20223;-77
2021/12/19 01:31:01;;;;;;;9.67;5.67;;;;;;;1.25;79.38;95390.38;4990870;28;20181;-77
2021/12/19 01:33:26;;;;;;;11.67;6.57;;;;;;;0.90;79.41;95364.25;4991185;28;20192;-78
2021/12/19 01:35:52;;;;;;;10.23;6.20;;;;;;;1.03;80.58;95398.50;4992127;28;20180;-77
2021/12/19 01:38:18;;;;;;;10.73;5.60;;;;;;;1.03;80.14;95381.16;4992457;28;20240;-77
2021/12/19 01:40:46;;;;;;;8.00;5.93;;;;;;;1.00;80.24;95393.56;4991994;28;20188;-76
2021/12/19 01:43:11;;;;;;;10.57;6.57;;;;;;;0.86;81.23;95378.47;4992245;28;20196;-76
2021/12/19 01:45:41;;;;;;;9.87;6.20;;;;;;;0.72;81.42;95348.59;4992404;28;20185;-76
2021/12/19 01:48:12;;;;;;;10.83;6.20;;;;;;;0.90;80.59;95367.69;4995833;28;20181;-76
2021/12/19 01:50:40;;;;;;;12.93;7.23;;;;;;;1.03;80.88;95372.56;4995655;28;20180;-76
2021/12/19 01:53:08;;;;;;;10.80;6.30;;;;;;;1.11;80.49;95373.50;4995264;28;20200;-76
2021/12/19 01:55:38;;;;;;;9.83;6.50;;;;;;;1.34;80.34;95378.34;4995406;28;20180;-77
2021/12/19 01:58:04;;;;;;;11.13;6.43;;;;;;;1.17;80.54;95376.47;4995412;28;20621;-75
2021/12/19 02:00:39;;;;;;;9.70;6.40;;;;;;;1.17;80.94;95366.13;4995237;28;20185;-76
2021/12/19 02:03:06;;;;;;;9.47;6.07;;;;;;;1.24;80.52;95367.19;4995361;28;20263;-76
2021/12/19 02:05:32;;;;;;;9.30;5.90;;;;;;;1.18;80.69;95359.97;4994928;28;20746;-76
2021/12/19 02:08:00;;;;;;;8.70;5.63;;;;;;;1.11;81.22;95360.53;4993446;28;20251;-76
2021/12/19 02:10:28;;;;;;;14.33;6.37;;;;;;;1.12;80.58;95364.75;4995203;28;20189;-76
2021/12/19 02:12:55;;;;;;;10.77;6.00;;;;;;;1.02;81.66;95351.03;4995407;28;20216;-76
2021/12/19 02:15:22;;;;;;;18.90;9.33;;;;;;;1.10;80.95;95350.31;4994741;28;20176;-78
2021/12/19 02:17:50;;;;;;;19.33;9.33;;;;;;;1.17;81.12;95360.94;4989344;28;20247;-79
2021/12/19 02:20:17;;;;;;;10.97;7.10;;;;;;;1.02;81.01;95345.84;4993372;28;20666;-78
2021/12/19 02:22:43;;;;;;;10.93;7.30;;;;;;;1.22;81.17;95359.53;4993477;28;20212;-76
2021/12/19 02:25:10;;;;;;;10.97;7.50;;;;;;;1.31;81.25;95347.50;4994757;28;20188;-76
2021/12/19 02:27:35;;;;;;;12.97;6.40;;;;;;;1.41;81.15;95349.09;4994897;28;20645;-76
2021/12/19 02:30:03;;;;;;;12.03;6.53;;;;;;;1.52;80.45;95358.50;4995211;28;20185;-76
2021/12/19 02:32:30;;;;;;;11.27;6.60;;;;;;;1.48;79.59;95338.97;4994777;28;20177;-76
2021/12/19 02:34:59;;;;;;;12.43;6.37;;;;;;;1.65;79.89;95352.97;4994688;28;20181;-76
2021/12/19 02:48:11;;;;;;;9.57;6.07;;;;;;;1.50;79.52;95344.84;4994650;28;20259;-76
2021/12/19 02:50:48;;;;;;;12.00;6.37;;;;;;;1.40;80.63;95333.69;4994419;28;20251;-76
2021/12/19 02:53:22;;;;;;;13.53;8.33;;;;;;;1.42;80.73;95347.34;4993148;28;20204;-76
2021/12/19 02:55:47;;;;;;;12.70;7.00;;;;;;;1.48;81.06;95337.19;4994242;28;20617;-76
2021/12/19 02:58:13;;;;;;;8.57;6.33;;;;;;;1.55;80.91;95336.66;4976605;28;20272;-76
2021/12/19 03:00:38;;;;;;;8.93;6.20;;;;;;;1.52;80.45;95324.78;4994647;28;20264;-76
2021/12/19 03:03:04;;;;;;;9.23;6.50;;;;;;;1.68;80.19;95329.31;4986040;28;20216;-76
2021/12/19 03:05:32;;;;;;;10.63;6.83;;;;;;;1.54;79.54;95309.88;4993938;28;20291;-76
2021/12/19 03:08:00;;;;;;;15.17;8.63;;;;;;;1.56;80.40;95326.09;4993864;28;20228;-76
2021/12/19 03:18:19;;;;;;;13.80;8.30;;;;;;;1.13;80.58;95324.09;4986779;28;20211;-76
2021/12/19 03:20:47;;;;;;;14.27;7.80;;;;;;;1.16;81.04;95329.00;4993813;28;20264;-77
2021/12/19 03:23:14;;;;;;;17.77;9.27;;;;;;;1.01;80.71;95310.50;4993821;28;20181;-77
2021/12/19 03:25:40;;;;;;;16.73;10.23;;;;;;;1.22;80.17;95332.78;4985177;28;20635;-77
2021/12/19 03:28:08;;;;;;;23.37;11.60;;;;;;;1.13;80.50;95327.50;4993601;28;20662;-77
2021/12/19 03:30:35;;;;;;;16.73;9.40;;;;;;;0.86;80.55;95298.97;4994043;28;20185;-77
2021/12/19 03:33:01;;;;;;;15.00;8.30;;;;;;;0.99;80.59;95324.56;4993970;28;20273;-77
2021/12/19 03:35:29;;;;;;;12.27;7.47;;;;;;;0.94;80.74;95325.00;4993644;28;20263;-77
2021/12/19 03:37:55;;;;;;;12.13;7.20;;;;;;;0.68;80.63;95292.88;4993671;28;20193;-77
2021/12/19 03:40:35;;;;;;;13.53;6.77;;;;;;;0.92;80.88;95324.31;4993588;28;20181;-77
2021/12/19 03:43:03;;;;;;;12.50;7.30;;;;;;;0.88;80.63;95322.94;4986178;28;20181;-77
2021/12/19 03:45:29;;;;;;;10.03;6.50;;;;;;;0.89;80.30;95324.56;4993663;28;20264;-77
2021/12/19 03:47:55;;;;;;;9.50;6.53;;;;;;;0.71;80.19;95297.75;4993771;28;20259;-77
2021/12/19 03:50:23;;;;;;;10.67;6.23;;;;;;;0.89;80.75;95315.97;4993462;28;20189;-77
2021/12/19 03:52:53;;;;;;;9.47;6.33;;;;;;;0.92;80.02;95321.72;4993325;28;20181;-77
2021/12/19 03:55:21;;;;;;;10.80;6.53;;;;;;;0.82;80.08;95312.31;4993331;28;20236;-77
2021/12/19 03:57:47;;;;;;;12.67;7.20;;;;;;;0.89;80.57;95300.44;4993266;28;20271;-77
2021/12/19 04:00:16;;;;;;;12.80;6.77;;;;;;;0.74;79.71;95300.91;4992774;28;20264;-77
2021/12/19 04:02:42;;;;;;;10.63;6.90;;;;;;;0.50;80.54;95264.28;4993100;28;20200;-77
2021/12/19 04:05:07;;;;;;;11.07;6.33;;;;;;;0.57;80.24;95286.06;4993244;28;20181;-78
2021/12/19 04:07:33;;;;;;;14.03;7.67;;;;;;;0.79;80.48;95297.06;4992580;28;20177;-76
2021/12/19 04:09:59;;;;;;;13.10;7.73;;;;;;;0.68;80.58;95287.69;4991903;28;20606;-77
2021/12/19 04:12:27;;;;;;;14.63;7.50;;;;;;;0.59;79.75;95260.84;4992789;28;20304;-77
2021/12/19 04:14:54;;;;;;;15.03;7.83;;;;;;;0.57;79.33;95251.59;4993275;28;20650;-77
2021/12/19 04:17:20;;;;;;;15.20;7.97;;;;;;;0.65;79.24;95277.59;4991738;28;20200;-77
2021/12/19 04:19:46;;;;;;;14.47;7.43;;;;;;;0.68;80.38;95282.50;4992823;28;20176;-76
2021/12/19 04:22:11;;;;;;;16.93;7.80;;;;;;;0.68;79.33;95277.34;4993256;28;20291;-78
2021/12/19 04:24:37;;;;;;;13.77;8.53;;;;;;;0.54;79.65;95260.44;4992752;28;20226;-76
2021/12/19 04:27:02;;;;;;;13.57;7.97;;;;;;;0.56;79.75;95266.31;4992923;28;20189;-76
2021/12/19 04:29:28;;;;;;;23.73;9.87;;;;;;;0.67;78.49;95270.50;4992912;28;20192;-77
2021/12/19 04:31:54;;;;;;;19.20;10.10;;;;;;;0.76;78.69;95280.03;4992780;28;20654;-77
2021/12/19 04:34:21;;;;;;;16.80;9.23;;;;;;;0.77;78.76;95276.50;4992752;28;20188;-77
2021/12/19 04:36:51;;;;;;;19.07;10.53;;;;;;;0.61;79.25;95271.06;4992806;28;20227;-77
2021/12/19 04:56:47;;;;;;;25.10;10.30;;;;;;;0.62;79.70;95251.97;4992472;28;20181;-76
2021/12/19 04:58:52;;;;;;;16.10;8.97;;;;;;;0.59;79.44;95236.72;4982171;28;20189;-77
2021/12/19 05:01:38;;;;;;;18.30;9.57;;;;;;;0.62;78.81;95226.06;4992212;28;20209;-76
2021/12/19 05:04:37;;;;;;;18.33;8.67;;;;;;;0.73;79.21;95260.41;4991733;28;20176;-77
2021/12/19 05:15:10;;;;;;;17.13;9.47;;;;;;;0.96;79.08;95260.84;4990367;28;20594;-77
2021/12/19 05:17:36;;;;;;;22.13;10.73;;;;;;;0.89;79.27;95258.97;4992049;28;20212;-77
2021/12/19 05:22:35;;;;;;;20.40;9.17;;;;;;;0.97;78.89;95259.91;4996072;28;20201;-77
2021/12/19 05:25:07;;;;;;;16.03;8.90;;;;;;;1.02;79.43;95265.50;4996063;28;20192;-76
2021/12/19 05:27:33;;;;;;;18.77;7.47;;;;;;;0.95;79.32;95269.59;4995915;28;20255;-76
2021/12/19 05:29:58;;;;;;;15.10;8.27;;;;;;;1.06;78.88;95264.22;4995919;28;20271;-76
2021/12/19 05:32:24;;;;;;;19.97;9.50;;;;;;;1.08;78.18;95259.72;4995713;28;20188;-76
2021/12/19 05:34:49;;;;;;;20.00;8.30;;;;;;;1.05;78.63;95264.38;4995866;28;20177;-76
2021/12/19 05:45:27;;;;;;;18.40;9.93;;;;;;;1.25;77.46;95250.38;4994511;28;20638;-76
2021/12/19 05:47:52;;;;;;;16.00;8.33;;;;;;;1.20;77.94;95238.81;4995767;28;20176;-76
2021/12/19 05:50:21;;;;;;;19.53;9.83;;;;;;;1.37;77.23;95254.41;4995547;28;20247;-77
2021/12/19 05:52:48;;;;;;;21.93;10.93;;;;;;;1.27;76.82;95250.25;4995475;28;20717;-76
2021/12/19 05:55:15;;;;;;;20.07;10.00;;;;;;;1.21;77.25;95249.00;4995431;28;20219;-76
2021/12/19 05:57:41;;;;;;;22.13;10.87;;;;;;;1.26;77.06;95252.00;4995269;28;20205;-76
2021/12/19 06:00:09;;;;;;;16.87;9.93;;;;;;;1.28;77.42;95246.69;4995091;28;20220;-77
2021/12/19 06:02:35;;;;;;;28.90;11.57;;;;;;;1.20;77.21;95251.78;4995118;28;20193;-76
2021/12/19 06:05:01;;;;;;;22.53;11.00;;;;;;;1.09;77.58;95245.81;4995121;28;20187;-76
2021/12/19 06:07:27;;;;;;;33.37;13.37;;;;;;;0.92;77.64;95231.03;4988866;28;20177;-76
2021/12/19 06:09:52;;;;;;;18.73;9.57;;;;;;;1.10;77.55;95247.44;4995332;28;20894;-76
2021/12/19 06:12:18;;;;;;;26.53;10.60;;;;;;;1.00;77.80;95245.84;4995064;28;20712;-76
2021/12/19 06:14:43;;;;;;;27.03;13.03;;;;;;;0.91;78.43;95242.34;4994657;28;20181;-76
2021/12/19 06:17:09;;;;;;;18.97;11.37;;;;;;;1.05;78.66;95235.84;4994964;28;20184;-77
2021/12/19 06:19:37;;;;;;;33.07;12.97;;;;;;;1.10;78.44;95226.72;4995244;28;20177;-76
2021/12/19 06:22:04;;;;;;;27.90;14.47;;;;;;;1.03;78.13;95227.44;4993152;28;20205;-77
2021/12/19 06:24:31;;;;;;;28.77;14.73;;;;;;;1.07;77.93;95215.81;4994138;28;20192;-76
2021/12/19 06:26:56;;;;;;;24.80;14.13;;;;;;;1.10;78.01;95215.53;4994671;28;20169;-76
2021/12/19 06:29:22;;;;;;;23.30;14.17;;;;;;;1.20;78.08;95212.91;4994583;28;20192;-77
2021/12/19 06:31:47;;;;;;;31.90;14.17;;;;;;;1.20;77.63;95207.72;4993665;28;20233;-76
2021/12/19 06:34:12;;;;;;;30.13;15.87;;;;;;;1.26;77.16;95201.94;4994655;28;20177;-76
2021/12/19 06:36:40;;;;;;;28.03;15.67;;;;;;;1.32;77.22;95207.34;4994489;28;20685;-76
2021/12/19 06:39:05;;;;;;;31.00;14.47;;;;;;;1.47;76.81;95208.47;4994369;28;20188;-76
2021/12/19 06:41:31;;;;;;;35.67;17.93;;;;;;;1.62;77.17;95208.00;4994220;28;20211;-76
2021/12/19 06:43:56;;;;;;;36.80;17.93;;;;;;;2.00;75.97;95204.25;4994317;28;20183;-76
2021/12/19 06:46:21;;;;;;;25.07;13.80;;;;;;;2.58;73.23;95207.13;4994116;28;20170;-76
2021/12/19 06:48:47;;;;;;;31.50;15.03;;;;;;;3.19;71.51;95206.94;4994350;28;20181;-76
2021/12/19 06:51:12;;;;;;;24.07;13.73;;;;;;;3.97;68.89;95210.06;4993626;28;20173;-76
2021/12/19 06:53:37;;;;;;;27.43;14.73;;;;;;;4.91;65.78;95201.66;4994132;28;20212;-77
2021/12/19 06:56:03;;;;;;;28.20;16.67;;;;;;;5.72;63.47;95200.47;4994204;28;20239;-77
2021/12/19 06:58:29;;;;;;;24.23;14.90;;;;;;;6.13;61.64;95201.09;4994013;28;20173;-77
2021/12/19 07:00:54;;;;;;;26.50;14.10;;;;;;;6.25;60.34;95192.63;4994194;28;20188;-77
2021/12/19 07:03:23;;;;;;;24.80;13.07;;;;;;;6.79;59.76;95205.56;4994125;28;20185;-77
2021/12/19 07:05:50;;;;;;;21.50;12.97;;;;;;;7.54;58.10;95207.97;4994344;28;20188;-77
2021/12/19 07:08:16;;;;;;;21.83;12.90;;;;;;;7.72;56.32;95205.78;4994222;28;20207;-77
2021/12/19 07:10:41;;;;;;;23.30;12.63;;;;;;;8.07;55.50;95214.63;4993490;28;20654;-76
2021/12/19 07:13:06;;;;;;;28.20;15.70;;;;;;;8.53;55.25;95209.03;4993739;28;20244;-77
2021/12/19 07:15:35;;;;;;;21.13;12.13;;;;;;;9.02;53.32;95215.06;4993878;28;20177;-77
2021/12/19 07:18:03;;;;;;;22.73;11.87;;;;;;;9.26;51.41;95213.78;4993759;28;20554;-76
2021/12/19 07:20:30;;;;;;;1999.90;999.90;;;;;;;9.08;52.22;95208.25;4993744;28;20165;-76
2021/12/19 07:22:56;;;;;;;182.23;134.57;;;;;;;8.32;52.76;95208.03;4993335;28;20209;-76
2021/12/19 07:25:22;;;;;;;111.73;101.00;;;;;;;7.40;54.90;95196.53;4993604;28;20252;-77
2021/12/19 07:27:47;;;;;;;390.30;360.10;;;;;;;6.54;57.19;95204.16;4994122;28;20183;-77
2021/12/19 07:30:13;;;;;;;1999.90;999.90;;;;;;;5.99;59.61;95195.59;4993762;28;20195;-76
2021/12/19 07:32:39;;;;;;;1999.90;999.90;;;;;;;5.49;60.82;95190.81;4993269;28;20180;-76
2021/12/19 07:35:08;;;;;;;1999.90;999.90;;;;;;;5.21;61.88;95180.03;4993781;28;20233;-76
2021/12/19 07:37:36;;;;;;;1090.87;972.63;;;;;;;4.90;63.07;95187.81;4993387;28;20173;-76
2021/12/19 07:40:17;;;;;;;234.20;213.43;;;;;;;4.83;63.48;95188.66;4993241;28;20553;-77
2021/12/19 07:42:44;;;;;;;30.37;13.03;;;;;;;4.70;64.08;95183.13;4993237;28;20216;-76
2021/12/19 07:45:11;;;;;;;27.17;13.97;;;;;;;4.53;65.18;95190.97;4993239;28;20205;-76
2021/12/19 07:47:38;;;;;;;21.23;12.20;;;;;;;4.45;65.53;95192.78;4993396;28;20173;-76
2021/12/19 07:50:05;;;;;;;21.97;11.40;;;;;;;4.31;65.82;95183.84;4993559;28;20561;-77
2021/12/19 07:52:31;;;;;;;23.90;12.43;;;;;;;4.31;66.38;95185.66;4993302;28;20188;-77
2021/12/19 07:54:56;;;;;;;21.40;10.53;;;;;;;4.25;66.13;95188.88;4993246;28;20174;-76
2021/12/19 07:57:22;;;;;;;26.40;13.87;;;;;;;4.14;65.88;95184.84;4993265;28;20177;-76
2021/12/19 07:59:47;;;;;;;28.43;16.00;;;;;;;3.80;66.43;95161.56;4991840;28;20197;-76
2021/12/19 08:02:13;;;;;;;35.73;21.80;;;;;;;3.69;67.14;95174.88;4992724;28;20207;-76
2021/12/19 08:04:39;;;;;;;27.13;16.03;;;;;;;3.65;68.44;95169.16;4992159;28;20589;-77
2021/12/19 08:07:05;;;;;;;39.33;18.83;;;;;;;3.45;69.14;95122.78;4986865;28;20173;-76
2021/12/19 08:09:39;;;;;;;36.07;17.30;;;;;;;3.72;68.40;95164.94;4992478;28;20192;-76
2021/12/19 08:12:05;;;;;;;30.47;15.47;;;;;;;3.68;67.89;95162.84;4992935;28;20220;-77
2021/12/19 08:14:30;;;;;;;26.63;14.37;;;;;;;3.58;68.22;95149.97;4991338;28;20295;-77
2021/12/19 08:16:55;;;;;;;29.70;18.47;;;;;;;3.31;68.41;95143.25;4992455;28;21015;-77
2021/12/19 08:19:21;;;;;;;27.70;14.93;;;;;;;3.07;69.01;95129.38;4993339;28;20725;-76
2021/12/19 08:21:46;;;;;;;25.87;13.20;;;;;;;3.24;69.75;95124.06;4992582;28;20283;-77
2021/12/19 08:24:13;;;;;;;33.30;15.53;;;;;;;3.17;69.89;95130.06;4992864;28;20177;-78
2021/12/19 08:26:41;;;;;;;28.93;15.33;;;;;;;3.18;70.22;95127.28;4992807;28;20254;-76
2021/12/19 08:29:06;;;;;;;23.73;12.37;;;;;;;3.21;70.05;95121.75;4992015;28;20674;-75
2021/12/19 08:31:32;;;;;;;28.17;14.57;;;;;;;3.26;69.50;95118.69;4990177;28;20169;-77
2021/12/19 08:33:58;;;;;;;24.57;13.00;;;;;;;3.25;70.34;95104.06;4992482;28;20618;-76
2021/12/19 08:36:25;;;;;;;28.97;14.80;;;;;;;3.38;70.52;95126.03;4991675;28;20642;-77
2021/12/19 08:38:50;;;;;;;30.83;15.27;;;;;;;3.28;70.04;95107.16;4992859;28;20267;-76
2021/12/19 08:41:16;;;;;;;30.53;16.27;;;;;;;3.38;69.68;95120.81;4991153;28;20205;-76
2021/12/19 08:43:42;;;;;;;23.90;13.63;;;;;;;3.51;69.77;95124.75;4991851;28;20184;-77
2021/12/19 08:46:11;;;;;;;22.23;12.77;;;;;;;3.37;69.01;95103.56;4992236;28;20180;-76
2021/12/19 08:48:37;;;;;;;30.87;16.07;;;;;;;3.55;69.15;95126.03;4992383;28;20305;-77
2021/12/19 08:51:03;;;;;;;28.90;15.63;;;;;;;3.48;68.99;95110.25;4992797;28;20177;-77
2021/12/19 08:53:28;;;;;;;40.03;18.33;;;;;;;3.17;69.44;95123.06;4992075;28;20188;-77
2021/12/19 08:55:54;;;;;;;29.80;17.03;;;;;;;3.18;70.01;95126.47;4990619;28;20203;-78
2021/12/19 08:58:19;;;;;;;20.13;12.43;;;;;;;3.26;70.17;95127.31;4989802;28;20181;-77
2021/12/19 09:00:45;;;;;;;27.80;14.83;;;;;;;3.28;69.85;95125.38;4989961;28;20197;-75
2021/12/19 09:03:10;;;;;;;44.50;21.37;;;;;;;3.36;69.86;95129.78;4989725;28;20189;-76
2021/12/19 09:05:36;;;;;;;39.57;22.90;;;;;;;3.46;70.31;95129.63;4990772;28;20209;-76
2021/12/19 09:08:02;;;;;;;28.67;15.07;;;;;;;3.46;70.42;95129.63;4990800;28;20263;-77
2021/12/19 09:10:28;;;;;;;32.60;16.90;;;;;;;3.35;70.16;95081.31;4991870;28;20188;-77
2021/12/19 09:12:57;;;;;;;36.03;19.33;;;;;;;3.47;69.36;95094.81;4989943;28;20248;-78
2021/12/19 09:15:23;;;;;;;35.10;18.80;;;;;;;3.44;69.38;95108.97;4991986;28;20252;-76
2021/12/19 09:17:49;;;;;;;34.37;18.83;;;;;;;3.28;70.20;95099.38;4990774;28;20669;-76
2021/12/19 09:20:15;;;;;;;40.57;17.93;;;;;;;3.19;69.80;95086.50;4991703;28;20193;-76
2021/12/19 09:22:43;;;;;;;36.53;16.13;;;;;;;3.17;70.22;95078.84;4990859;28;20201;-76
2021/12/19 09:25:09;;;;;;;27.50;14.03;;;;;;;3.13;70.85;95087.13;4990419;28;20181;-76
2021/12/19 09:27:38;;;;;;;33.53;16.27;;;;;;;3.28;71.09;95095.94;4991871;28;20240;-75
2021/12/19 09:30:05;;;;;;;32.13;15.63;;;;;;;3.26;70.92;95079.69;4989380;28;20571;-75
2021/12/19 09:32:31;;;;;;;32.40;15.63;;;;;;;3.00;71.15;95039.00;4991216;28;20251;-75
2021/12/19 09:34:56;;;;;;;23.87;12.00;;;;;;;3.38;71.53;95074.00;4991640;28;20264;-77
2021/12/19 09:37:22;;;;;;;22.30;12.43;;;;;;;3.37;71.83;95056.75;4989818;28;20239;-76
2021/12/19 09:39:50;;;;;;;30.33;14.07;;;;;;;3.52;71.26;95071.75;4990750;28;20181;-76
2021/12/19 09:42:21;;;;;;;41.20;19.23;;;;;;;3.53;71.14;95071.59;4989633;28;20201;-76
2021/12/19 09:44:49;;;;;;;44.13;22.50;;;;;;;3.26;71.09;95012.88;4990921;28;20584;-77
2021/12/19 09:47:15;;;;;;;37.43;18.57;;;;;;;3.51;70.98;95029.28;4991227;28;20207;-77
2021/12/19 09:49:40;;;;;;;39.93;18.43;;;;;;;3.76;70.58;95056.94;4991193;28;20184;-76
2021/12/19 09:52:08;;;;;;;49.77;22.57;;;;;;;3.79;70.18;95046.19;4989670;28;20173;-77
2021/12/19 09:54:36;;;;;;;51.33;23.40;;;;;;;3.77;70.77;95042.94;4989274;28;20662;-77
2021/12/19 09:57:03;;;;;;;42.20;19.97;;;;;;;3.73;70.54;95015.59;4991175;28;20177;-76
2021/12/19 09:59:31;;;;;;;39.03;18.47;;;;;;;3.79;70.54;95024.56;4991104;28;20251;-77
2021/12/19 10:01:57;;;;;;;33.77;15.87;;;;;;;3.89;70.72;95017.38;4991898;28;20197;-78
2021/12/19 10:04:37;;;;;;;26.77;14.97;;;;;;;3.94;69.68;95015.09;4991650;28;20181;-76
2021/12/19 10:07:17;;;;;;;31.47;15.87;;;;;;;3.91;70.29;95015.41;4992333;28;20173;-77
2021/12/19 10:10:02;;;;;;;34.03;16.70;;;;;;;3.95;70.23;95008.09;4992593;28;20634;-78
2021/12/19 10:12:48;;;;;;;38.00;17.63;;;;;;;3.94;69.75;94998.63;4993482;28;20200;-77
2021/12/19 10:15:19;;;;;;;32.60;16.03;;;;;;;3.92;70.44;95000.59;4988988;28;20181;-77
2021/12/19 10:17:45;;;;;;;35.50;16.77;;;;;;;3.89;70.79;94996.56;4994664;28;20177;-77
2021/12/19 10:20:16;;;;;;;27.53;15.27;;;;;;;3.97;71.10;94996.53;4994702;28;20181;-77
2021/12/19 10:22:47;;;;;;;27.53;12.87;;;;;;;3.94;70.29;94989.03;4995248;28;20655;-77
2021/12/19 10:25:30;;;;;;;20.63;11.40;;;;;;;3.95;70.17;94977.66;4993711;28;20173;-76
2021/12/19 10:28:08;;;;;;;20.23;11.30;;;;;;;3.73;70.85;94952.31;4992968;28;20200;-77
2021/12/19 10:30:46;;;;;;;20.40;11.93;;;;;;;3.91;71.70;94978.94;4994978;28;20268;-77
2021/12/19 10:33:17;;;;;;;19.73;10.67;;;;;;;3.97;70.90;94974.88;4995095;28;20191;-77
2021/12/19 10:35:51;;;;;;;19.00;11.33;;;;;;;3.95;70.90;94967.22;4994083;28;20192;-76
2021/12/19 10:38:23;;;;;;;29.03;14.73;;;;;;;3.87;71.51;94969.03;4986787;28;20185;-77
2021/12/19 10:40:58;;;;;;;26.50;12.10;;;;;;;3.71;72.08;94943.88;4989511;28;20239;-76
2021/12/19 10:43:31;;;;;;;22.70;13.60;;;;;;;3.74;72.44;94953.94;4993058;28;20180;-76
2021/12/19 10:46:03;;;;;;;27.40;14.37;;;;;;;3.73;72.20;94952.31;4993030;28;20220;-76
2021/12/19 10:48:36;;;;;;;25.07;12.80;;;;;;;3.75;73.00;94955.56;4987589;28;20216;-75
2021/12/19 10:51:16;;;;;;;20.93;10.80;;;;;;;3.83;72.13;94952.13;4993534;28;20181;-76
2021/12/19 10:53:52;;;;;;;27.50;12.90;;;;;;;3.83;71.78;94947.72;4991770;28;20275;-76
2021/12/19 10:56:22;;;;;;;23.87;13.03;;;;;;;3.88;71.75;94942.03;4991061;28;20267;-76
2021/12/19 10:58:54;;;;;;;24.13;14.20;;;;;;;3.90;71.53;94938.25;4990439;28;20181;-76
2021/12/19 11:01:37;;;;;;;44.57;21.67;;;;;;;3.99;71.06;94931.22;4992878;28;20555;-77
2021/12/19 11:04:07;;;;;;;44.23;20.00;;;;;;;3.93;70.55;94924.91;4990931;28;20698;-75
2021/12/19 11:06:53;;;;;;;40.33;19.50;;;;;;;3.99;70.92;94926.84;4990333;28;20606;-75
2021/12/19 11:09:24;;;;;;;31.47;16.23;;;;;;;3.78;70.88;94887.56;4989524;28;20181;-79
2021/12/19 11:11:51;;;;;;;31.67;16.47;;;;;;;3.95;71.02;94912.56;4992472;28;20174;-76
2021/12/19 11:14:26;;;;;;;40.67;19.27;;;;;;;3.74;71.18;94875.84;4992969;28;20676;-76
2021/12/19 11:17:01;;;;;;;42.73;21.33;;;;;;;3.97;71.18;94907.19;4990281;28;20267;-76
2021/12/19 11:19:28;;;;;;;40.00;19.83;;;;;;;3.90;71.39;94896.59;4993086;28;20224;-78
2021/12/19 11:21:56;;;;;;;31.60;16.87;;;;;;;4.04;70.95;94903.72;4992761;28;20216;-77
2021/12/19 11:24:24;;;;;;;39.13;18.67;;;;;;;4.10;70.49;94895.22;4993329;28;20259;-76
2021/12/19 11:26:54;;;;;;;45.63;20.03;;;;;;;4.14;70.18;94893.91;4992916;28;20180;-76
2021/12/19 11:29:20;;;;;;;38.40;19.03;;;;;;;4.02;70.80;94890.06;4993483;28;20177;-77
2021/12/19 11:31:50;;;;;;;30.40;16.30;;;;;;;4.10;70.20;94895.22;4992048;28;20546;-77
2021/12/19 11:34:20;;;;;;;37.43;17.27;;;;;;;4.09;69.71;94895.38;4993540;28;20212;-77
2021/12/19 11:37:08;;;;;;;37.93;17.40;;;;;;;4.08;69.74;94894.56;4989048;28;20181;-77
2021/12/19 11:39:37;;;;;;;28.33;14.77;;;;;;;3.98;69.84;94883.53;4992952;28;20189;-78
2021/12/19 11:42:04;;;;;;;40.90;19.00;;;;;;;3.97;70.24;94891.56;4991168;28;20251;-78
2021/12/19 11:44:36;;;;;;;40.90;20.57;;;;;;;3.86;70.69;94871.09;4993041;28;20651;-77
2021/12/19 11:47:08;;;;;;;36.30;18.40;;;;;;;3.99;70.96;94879.16;4993706;28;20180;-76
2021/12/19 11:49:33;;;;;;;40.53;17.73;;;;;;;4.00;70.25;94870.38;4987925;28;20542;-76
2021/12/19 11:52:30;;;;;;;30.93;15.63;;;;;;;3.96;70.17;94859.50;4993555;28;20195;-76
2021/12/19 11:55:14;;;;;;;37.77;19.50;;;;;;;3.89;70.56;94855.13;4993008;28;20162;-76
2021/12/19 11:58:03;;;;;;;31.30;15.40;;;;;;;3.87;70.45;94850.09;4990994;28;20234;-77
2021/12/19 12:00:32;;;;;;;41.33;20.50;;;;;;;3.83;71.00;94848.81;4990773;28;20561;-77
2021/12/19 12:03:13;;;;;;;39.27;19.27;;;;;;;3.83;70.62;94851.41;4989458;28;20267;-77
2021/12/19 12:05:40;;;;;;;47.80;21.17;;;;;;;3.52;70.84;94820.16;4989540;28;20200;-78
2021/12/19 12:08:13;;;;;;;44.83;19.47;;;;;;;3.59;71.35;94841.09;4989773;28;20201;-77
2021/12/19 12:10:47;;;;;;;36.80;16.57;;;;;;;3.42;71.89;94835.94;4990486;28;20547;-78
2021/12/19 12:13:41;;;;;;;40.00;19.10;;;;;;;3.51;72.76;94834.13;4990583;28;20228;-78
2021/12/19 12:16:32;;;;;;;38.70;19.27;;;;;;;3.55;72.35;94827.59;4988017;28;20204;-78
2021/12/19 12:19:00;;;;;;;35.30;17.10;;;;;;;3.66;72.18;94826.44;4990880;28;20316;-77
2021/12/19 12:21:42;;;;;;;32.60;16.27;;;;;;;3.67;71.92;94823.66;4990960;28;20216;-78
2021/12/19 12:24:17;;;;;;;44.13;17.70;;;;;;;3.69;71.43;94826.09;4991087;28;20699;-77
2021/12/19 12:27:04;;;;;;;46.77;21.50;;;;;;;3.56;71.95;94779.78;4991255;28;20180;-77
2021/12/19 12:29:31;;;;;;;54.60;22.37;;;;;;;3.72;71.75;94807.53;4990273;28;20197;-78
2021/12/19 12:31:57;;;;;;;53.90;25.03;;;;;;;3.56;71.80;94776.38;4991139;28;20263;-78
2021/12/19 12:34:22;;;;;;;50.83;22.20;;;;;;;3.72;72.31;94794.50;4990628;28;20287;-78
2021/12/19 12:36:48;;;;;;;42.13;23.13;;;;;;;3.78;71.87;94786.03;4990878;28;20688;-78